Newton, Massachusetts
Current Conditions -  °F | °C
As of 12:56 AM on Friday 28 Nov 2014 (Local Time) from KBED Reporting Station
Light Snow Light Snow  
Wind Chill: 22°   Ceiling: 1200
Heat Index: 28°   Visibility: 1.5mi
Dew Point: 27°   Wind: 6mph
Humidity: 96%   Direction: 320°NW
Pressure: 29.98"   Gusts: NA
Location:  42.34°N, 71.21°W
Report Text: KBED 280556Z AUTO 32005KT 1 1/2SM -SN BR FEW006 BKN012 OVC027 M02/M03 A2998 RMK AO2 SLP170 P0001 60001 T10221028 10000 21022 58005 TSNO
Loading
Personal Weather Stations






























Interactive Weather Map New forecast layout! Learn more

10-Day Weather Forecast

Advertisements
Track Severe Weather on mobile